Time;durP1;ratioP1;P1;durP2;ratioP2;P2;SDS_P1;SDS_P2;PMS_P1;PMS_P2;Temp;Humidity;BMP_temperature;BMP_pressure;BME280_temperature;BME280_humidity;BME280_pressure;Samples;Min_cycle;Max_cycle;Signal;HPM_P1;HPM_P2
2022/03/03 00:00:24;;;;;;;18.52;10.43;;;;;;;5.21;49.73;99533.28;3151682;28;20434;-61
2022/03/03 00:01:57;;;;;;;22.90;12.18;;;;;;;5.21;49.82;99536.69;3150997;28;20053;-60
2022/03/03 00:03:29;;;;;;;25.95;11.65;;;;;;;5.17;49.88;99535.06;3148088;28;20433;-60
2022/03/03 00:05:01;;;;;;;20.92;11.00;;;;;;;5.17;49.81;99529.06;3153310;28;20048;-60
2022/03/03 00:06:33;;;;;;;21.33;12.10;;;;;;;5.19;49.80;99528.13;3150497;28;20048;-61
2022/03/03 00:08:05;;;;;;;17.20;10.05;;;;;;;5.15;49.92;99528.28;3151368;28;20044;-61
2022/03/03 00:09:37;;;;;;;16.90;10.95;;;;;;;5.11;49.91;99524.06;3155506;28;20040;-60
2022/03/03 00:11:09;;;;;;;23.30;10.82;;;;;;;5.05;50.09;99530.25;3150476;28;20108;-61
2022/03/03 00:12:41;;;;;;;21.83;10.75;;;;;;;5.09;50.14;99529.28;3150092;28;20086;-61
2022/03/03 00:14:13;;;;;;;21.05;10.25;;;;;;;5.10;50.09;99528.41;3151320;28;20048;-60
2022/03/03 00:15:45;;;;;;;20.65;10.73;;;;;;;5.10;50.03;99524.97;3146272;28;20107;-60
2022/03/03 00:17:18;;;;;;;20.92;11.18;;;;;;;5.11;50.14;99531.81;3153000;28;20458;-61
2022/03/03 00:18:49;;;;;;;22.40;11.07;;;;;;;5.10;50.13;99525.81;3153231;28;20113;-61
2022/03/03 00:20:21;;;;;;;19.27;10.30;;;;;;;5.11;50.09;99526.66;3149652;28;20087;-61
2022/03/03 00:21:53;;;;;;;17.83;10.43;;;;;;;5.06;50.13;99526.81;3154158;28;20048;-61
2022/03/03 00:23:25;;;;;;;19.83;10.50;;;;;;;5.03;50.15;99521.72;3146193;28;20056;-61
2022/03/03 00:24:57;;;;;;;18.58;10.77;;;;;;;5.04;50.12;99515.66;3151970;28;20491;-61
2022/03/03 00:26:30;;;;;;;21.80;11.60;;;;;;;5.04;50.12;99514.81;3152165;28;20045;-61
2022/03/03 00:28:03;;;;;;;;;;;;;;;4.84;50.39;99517.91;3146825;28;20053;-61
2022/03/03 00:29:35;;;;;;;19.45;10.70;;;;;;;4.88;50.45;99519.53;3153005;28;20510;-61
2022/03/03 00:31:07;;;;;;;20.67;10.18;;;;;;;4.92;50.29;99516.00;3155263;28;20052;-61
2022/03/03 00:32:40;;;;;;;17.52;10.45;;;;;;;4.95;50.12;99515.91;3148360;28;20097;-61
2022/03/03 00:34:13;;;;;;;18.63;9.98;;;;;;;4.92;50.15;99508.25;3154951;28;20196;-61
2022/03/03 00:35:45;;;;;;;20.17;10.43;;;;;;;4.94;50.02;99499.59;3146216;28;20044;-61
2022/03/03 00:37:17;;;;;;;18.63;10.00;;;;;;;4.95;50.13;99503.00;3151019;28;20051;-61
2022/03/03 00:38:49;;;;;;;18.40;9.32;;;;;;;4.96;49.97;99507.28;3155716;28;20722;-61
2022/03/03 00:40:21;;;;;;;16.60;9.63;;;;;;;4.95;49.97;99505.59;3148108;28;20048;-61
2022/03/03 00:41:53;;;;;;;18.15;9.70;;;;;;;4.96;50.03;99509.84;3152438;28;20052;-60
2022/03/03 00:43:25;;;;;;;23.42;11.02;;;;;;;5.00;49.98;99514.06;3150449;28;20106;-60
2022/03/03 00:44:56;;;;;;;17.75;9.95;;;;;;;4.96;50.07;99509.84;3147550;28;20056;-61
2022/03/03 00:46:28;;;;;;;17.50;9.98;;;;;;;4.97;50.20;99509.00;3155181;28;20063;-61
2022/03/03 00:48:02;;;;;;;18.90;10.02;;;;;;;4.82;50.06;99479.25;3147286;28;20057;-61
2022/03/03 00:49:35;;;;;;;17.63;9.82;;;;;;;4.97;50.16;99507.25;3150309;28;20138;-61
2022/03/03 00:51:07;;;;;;;16.88;9.55;;;;;;;4.96;50.14;99507.28;3152298;28;20048;-61
2022/03/03 00:52:39;;;;;;;17.45;10.32;;;;;;;4.97;50.33;99509.00;3145947;28;20055;-61
2022/03/03 00:54:11;;;;;;;18.52;10.18;;;;;;;4.99;50.23;99504.59;3152746;28;20079;-61
2022/03/03 00:55:43;;;;;;;16.23;9.60;;;;;;;5.00;50.16;99498.56;3152041;28;20098;-61
2022/03/03 00:57:15;;;;;;;19.95;10.20;;;;;;;5.01;50.19;99495.09;3146460;28;20052;-61
2022/03/03 00:58:47;;;;;;;18.40;9.57;;;;;;;5.00;50.16;99498.56;3153995;28;20047;-61
2022/03/03 01:00:19;;;;;;;16.17;9.93;;;;;;;4.98;50.09;99492.59;3147846;28;20406;-61
2022/03/03 01:01:51;;;;;;;22.20;10.45;;;;;;;5.00;50.15;99494.25;3147736;28;20139;-61
2022/03/03 01:03:25;;;;;;;18.50;9.57;;;;;;;5.02;49.96;99497.63;3155019;28;20043;-61
2022/03/03 01:04:56;;;;;;;18.00;9.70;;;;;;;5.00;49.82;99503.75;3154525;28;20135;-61
2022/03/03 01:06:28;;;;;;;16.85;8.93;;;;;;;5.00;49.84;99496.84;3150320;28;20452;-61
2022/03/03 01:07:59;;;;;;;16.80;8.77;;;;;;;5.03;49.88;99501.06;3152667;28;20071;-61
2022/03/03 01:09:31;;;;;;;17.48;9.18;;;;;;;5.05;49.81;99501.84;3146393;28;20048;-61
2022/03/03 01:11:03;;;;;;;15.82;8.45;;;;;;;5.06;49.81;99502.69;3153256;28;20406;-61
2022/03/03 01:12:35;;;;;;;16.00;9.35;;;;;;;5.08;49.90;99498.34;3149610;28;20496;-61
2022/03/03 01:14:08;;;;;;;16.02;8.95;;;;;;;5.09;49.75;99500.03;3147657;28;20114;-61
2022/03/03 01:15:40;;;;;;;16.20;8.95;;;;;;;5.08;49.83;99495.78;3153828;28;20583;-61
2022/03/03 01:17:13;;;;;;;16.40;8.85;;;;;;;5.06;49.84;99498.41;3146993;28;20067;-61
2022/03/03 01:18:46;;;;;;;15.68;9.10;;;;;;;4.95;49.82;99477.22;3149752;28;20529;-61
2022/03/03 01:20:18;;;;;;;14.30;8.55;;;;;;;5.05;49.92;99490.69;3153782;28;20063;-61
2022/03/03 01:21:50;;;;;;;16.08;8.65;;;;;;;5.06;49.79;99495.81;3151641;28;20586;-61
2022/03/03 01:23:22;;;;;;;17.90;8.65;;;;;;;5.04;50.03;99495.00;3152246;28;20051;-61
2022/03/03 01:24:54;;;;;;;19.08;9.18;;;;;;;5.06;49.87;99493.25;3156278;28;20509;-60
2022/03/03 01:26:26;;;;;;;14.80;9.02;;;;;;;5.06;49.80;99493.25;3156286;28;20056;-60
2022/03/03 01:27:58;;;;;;;16.58;9.20;;;;;;;5.07;49.89;99492.34;3154855;28;20509;-60
2022/03/03 01:29:30;;;;;;;14.73;8.23;;;;;;;5.07;49.81;99492.34;3146998;28;20040;-60
2022/03/03 01:31:02;;;;;;;15.15;9.05;;;;;;;5.08;49.81;99494.03;3149971;28;20078;-62
2022/03/03 01:32:34;;;;;;;16.38;9.18;;;;;;;5.05;49.86;99483.78;3154083;28;20044;-62
2022/03/03 01:34:07;;;;;;;20.75;9.55;;;;;;;5.10;49.81;99494.84;3151178;28;20418;-62
2022/03/03 01:35:39;;;;;;;21.00;9.38;;;;;;;5.08;49.96;99485.44;3150260;28;20074;-61
2022/03/03 01:37:10;;;;;;;14.38;8.63;;;;;;;5.08;50.04;99483.72;3156580;28;20047;-61
2022/03/03 01:38:42;;;;;;;17.48;9.30;;;;;;;4.88;49.93;99455.03;3146225;28;20060;-62
2022/03/03 01:40:14;;;;;;;14.43;9.05;;;;;;;5.09;50.01;99497.44;3151865;28;20045;-61
2022/03/03 01:41:46;;;;;;;15.20;8.27;;;;;;;4.89;50.02;99464.47;3150148;28;20113;-61
2022/03/03 01:43:17;;;;;;;17.45;8.93;;;;;;;5.08;49.95;99491.44;3146218;28;20056;-61
2022/03/03 01:44:49;;;;;;;15.18;8.90;;;;;;;5.08;49.93;99488.88;3153170;28;20129;-61
2022/03/03 01:46:21;;;;;;;16.15;8.50;;;;;;;5.08;49.99;99478.53;3146623;28;20250;-61
2022/03/03 01:47:53;;;;;;;15.95;8.77;;;;;;;4.93;49.82;99446.28;3150329;28;20048;-61
2022/03/03 01:49:26;;;;;;;13.90;7.70;;;;;;;4.96;49.80;99458.25;3152239;28;20044;-61
2022/03/03 01:50:58;;;;;;;15.93;8.80;;;;;;;5.10;49.91;99491.41;3145275;28;20049;-61
2022/03/03 01:52:29;;;;;;;15.90;8.80;;;;;;;5.08;50.06;99486.28;3151292;28;20741;-61
2022/03/03 01:54:01;;;;;;;19.38;8.80;;;;;;;5.06;49.80;99482.91;3151166;28;20488;-62
2022/03/03 01:55:33;;;;;;;15.43;8.60;;;;;;;5.07;49.77;99478.59;3145347;28;20056;-62
2022/03/03 01:57:07;;;;;;;13.77;8.45;;;;;;;5.06;49.76;99487.22;3155227;28;20201;-61
2022/03/03 01:58:39;;;;;;;15.68;7.95;;;;;;;5.02;49.79;99482.13;3149880;28;20093;-61
2022/03/03 02:00:12;;;;;;;14.43;7.55;;;;;;;5.04;49.73;99489.84;3148529;28;20050;-61
2022/03/03 02:01:44;;;;;;;12.38;8.20;;;;;;;5.01;49.71;99487.34;3154207;28;20094;-61
2022/03/03 02:03:16;;;;;;;15.05;8.50;;;;;;;5.01;49.80;99484.78;3146019;28;20052;-61
2022/03/03 02:04:50;;;;;;;13.35;7.28;;;;;;;5.02;49.63;99486.47;3151106;28;20045;-61
2022/03/03 02:06:21;;;;;;;14.73;8.40;;;;;;;4.97;49.82;99489.19;3150592;28;20056;-61
2022/03/03 02:07:53;;;;;;;18.80;8.90;;;;;;;4.99;49.71;99489.13;3149134;28;20159;-61
2022/03/03 02:09:24;;;;;;;13.70;7.75;;;;;;;4.99;49.67;99486.53;3149502;28;20536;-61
2022/03/03 02:10:57;;;;;;;14.50;8.13;;;;;;;4.94;49.70;99485.81;3154757;28;20052;-61
2022/03/03 02:12:29;;;;;;;13.40;7.88;;;;;;;4.91;49.75;99484.19;3156772;28;20101;-61
2022/03/03 02:14:03;;;;;;;16.65;8.05;;;;;;;4.90;49.76;99485.06;3151970;28;20059;-61
2022/03/03 02:15:35;;;;;;;13.95;8.52;;;;;;;4.89;49.74;99480.78;3156162;28;20052;-62
2022/03/03 02:17:06;;;;;;;13.80;8.35;;;;;;;4.88;49.78;99492.00;3155514;28;20054;-61
2022/03/03 02:18:41;;;;;;;21.10;8.90;;;;;;;4.88;49.82;99478.25;3151998;28;20040;-62
2022/03/03 02:20:21;;;;;;;14.18;7.38;;;;;;;4.86;49.70;99480.88;3142610;28;20097;-61
2022/03/03 02:21:53;;;;;;;16.10;8.68;;;;;;;4.81;50.01;99481.88;3147349;28;20519;-62
2022/03/03 02:23:25;;;;;;;14.43;7.97;;;;;;;4.81;49.83;99474.16;3149248;28;20629;-62
2022/03/03 02:24:57;;;;;;;15.32;8.15;;;;;;;4.83;49.90;99490.44;3141338;28;20110;-62
2022/03/03 02:26:29;;;;;;;13.27;7.63;;;;;;;4.83;49.79;99480.97;3147823;28;20089;-62
2022/03/03 02:28:01;;;;;;;15.80;7.45;;;;;;;4.81;49.97;99482.72;3146372;28;20053;-62
2022/03/03 02:29:34;;;;;;;16.15;8.48;;;;;;;4.75;49.97;99470.84;3149855;28;20045;-62
2022/03/03 02:31:06;;;;;;;13.88;8.02;;;;;;;4.80;49.94;99478.47;3145975;28;20054;-61
2022/03/03 02:32:38;;;;;;;14.02;7.90;;;;;;;4.81;49.92;99475.00;3140949;28;20051;-62
2022/03/03 02:34:10;;;;;;;14.98;7.85;;;;;;;4.80;49.91;99478.47;3144841;28;20047;-62
2022/03/03 02:35:43;;;;;;;16.00;8.20;;;;;;;4.82;49.85;99473.25;3145753;28;20164;-62
2022/03/03 02:37:16;;;;;;;14.55;8.05;;;;;;;4.82;49.89;99473.25;3139884;28;20574;-62
2022/03/03 02:38:47;;;;;;;16.43;8.70;;;;;;;4.81;49.93;99469.00;3147193;28;20058;-62
2022/03/03 02:40:21;;;;;;;16.67;8.73;;;;;;;4.82;49.91;99473.25;3139614;28;20121;-62
2022/03/03 02:41:53;;;;;;;18.20;8.88;;;;;;;4.79;49.94;99469.88;3145881;28;20052;-62
2022/03/03 02:43:25;;;;;;;13.73;8.10;;;;;;;4.79;49.85;99477.63;3147391;28;20059;-62
2022/03/03 02:44:57;;;;;;;14.48;7.95;;;;;;;4.81;50.00;99475.00;3141279;28;20064;-62
2022/03/03 02:46:29;;;;;;;16.00;7.85;;;;;;;4.78;49.95;99478.50;3146439;28;20055;-62
2022/03/03 02:48:01;;;;;;;16.00;7.95;;;;;;;4.75;50.02;99478.56;3142577;28;20060;-61
2022/03/03 02:49:33;;;;;;;15.73;8.18;;;;;;;4.75;50.12;99473.41;3141423;28;20402;-62
2022/03/03 02:51:07;;;;;;;13.48;8.45;;;;;;;4.78;50.12;99475.91;3147878;28;20052;-61
2022/03/03 02:52:39;;;;;;;15.75;8.13;;;;;;;4.76;50.08;99471.69;3151582;28;20160;-61
2022/03/03 02:54:11;;;;;;;15.05;8.13;;;;;;;4.74;50.39;99476.88;3150321;28;20044;-62
2022/03/03 02:55:43;;;;;;;13.45;7.80;;;;;;;4.73;50.36;99474.34;3147224;28;20056;-61
2022/03/03 02:59:07;;;;;;;16.40;8.60;;;;;;;4.67;50.52;99480.50;3122992;28;20063;-62
2022/03/03 03:00:42;;;;;;;14.57;7.82;;;;;;;4.69;50.36;99473.59;3145693;28;20048;-62
2022/03/03 03:02:14;;;;;;;22.13;9.05;;;;;;;4.67;50.35;99477.09;3150088;28;20052;-62
2022/03/03 03:03:46;;;;;;;14.95;8.43;;;;;;;4.63;50.52;99466.00;3147674;28;20044;-62
2022/03/03 03:05:18;;;;;;;15.40;8.80;;;;;;;4.61;50.48;99462.63;3139658;28;20096;-61
2022/03/03 03:06:51;;;;;;;16.08;8.93;;;;;;;4.62;50.47;99466.91;3144327;28;20382;-62
2022/03/03 03:08:23;;;;;;;15.52;8.48;;;;;;;4.60;50.43;99463.50;3146105;28;20217;-62
2022/03/03 03:09:55;;;;;;;17.88;8.93;;;;;;;4.59;50.60;99466.16;3139582;28;20045;-62
2022/03/03 03:11:27;;;;;;;17.80;8.23;;;;;;;4.57;50.80;99469.59;3145946;28;20495;-61
2022/03/03 03:12:59;;;;;;;18.05;9.07;;;;;;;4.59;50.72;99469.56;3142856;28;20092;-61
2022/03/03 03:14:31;;;;;;;15.77;8.45;;;;;;;4.59;50.82;99472.16;3146396;28;20064;-61
2022/03/03 03:16:04;;;;;;;12.90;7.68;;;;;;;4.56;50.82;99467.06;3148345;28;20513;-61
2022/03/03 03:17:35;;;;;;;15.93;9.13;;;;;;;4.53;50.85;99467.16;3141577;28;20175;-61
2022/03/03 03:19:07;;;;;;;17.33;8.65;;;;;;;4.54;50.90;99461.09;3146455;28;20048;-61
2022/03/03 03:20:40;;;;;;;17.00;8.35;;;;;;;4.56;50.81;99467.06;3146106;28;20093;-61
2022/03/03 03:22:14;;;;;;;16.92;8.32;;;;;;;4.55;50.88;99473.09;3145025;28;20063;-61
2022/03/03 03:23:46;;;;;;;12.55;7.45;;;;;;;4.53;50.83;99459.41;3146909;28;20555;-61
2022/03/03 03:25:17;;;;;;;12.35;7.72;;;;;;;4.53;50.87;99456.84;3148918;28;20232;-61
2022/03/03 03:26:50;;;;;;;14.73;7.93;;;;;;;4.53;50.75;99460.25;3151317;28;20051;-60
2022/03/03 03:28:21;;;;;;;15.60;8.20;;;;;;;4.36;50.68;99431.47;3148876;28;20514;-61
2022/03/03 03:29:53;;;;;;;14.77;8.48;;;;;;;4.52;50.76;99466.28;3153681;28;20051;-61
2022/03/03 03:31:27;;;;;;;13.55;7.85;;;;;;;4.52;50.77;99460.28;3152550;28;20105;-61
2022/03/03 03:32:59;;;;;;;15.85;9.00;;;;;;;4.50;50.83;99456.91;3149790;28;20756;-61
2022/03/03 03:34:31;;;;;;;12.52;7.97;;;;;;;4.48;50.88;99466.41;3149444;28;20131;-61
2022/03/03 03:36:04;;;;;;;14.23;8.02;;;;;;;4.46;50.69;99465.59;3150750;28;20052;-61
2022/03/03 03:37:37;;;;;;;13.95;8.27;;;;;;;4.45;50.70;99467.31;3147118;28;20148;-61
2022/03/03 03:39:09;;;;;;;;;;;;;;;4.24;50.96;99471.28;3142319;28;20524;-62
2022/03/03 03:40:41;;;;;;;14.40;7.45;;;;;;;4.29;51.14;99469.47;3146020;28;19928;-61
2022/03/03 03:42:12;;;;;;;13.82;7.88;;;;;;;4.27;50.94;99463.50;3149140;28;20124;-61
2022/03/03 03:43:44;;;;;;;11.98;7.10;;;;;;;4.31;50.86;99461.66;3143349;28;20060;-61
2022/03/03 03:45:16;;;;;;;16.95;7.85;;;;;;;4.30;50.91;99460.84;3149345;28;20129;-61
2022/03/03 03:46:48;;;;;;;12.52;7.90;;;;;;;4.31;50.89;99459.94;3142640;28;20057;-61
2022/03/03 03:48:22;;;;;;;12.82;7.53;;;;;;;4.34;50.81;99462.44;3144674;28;20048;-61
2022/03/03 03:49:54;;;;;;;12.48;7.40;;;;;;;4.36;50.74;99467.56;3152153;28;20044;-61
2022/03/03 03:51:26;;;;;;;17.17;7.93;;;;;;;4.37;50.93;99465.81;3144212;28;20055;-61
2022/03/03 03:52:59;;;;;;;12.60;7.10;;;;;;;4.36;50.66;99464.16;3147131;28;20048;-60
2022/03/03 03:54:31;;;;;;;13.77;7.57;;;;;;;4.32;50.73;99471.13;3147919;28;20051;-60
2022/03/03 03:56:03;;;;;;;13.93;7.78;;;;;;;4.33;50.65;99471.06;3148479;28;20051;-60
2022/03/03 03:57:36;;;;;;;14.10;7.72;;;;;;;4.32;50.73;99458.22;3150024;28;20052;-61
2022/03/03 03:59:07;;;;;;;13.52;7.97;;;;;;;4.24;50.64;99447.25;3143208;28;20143;-62
2022/03/03 04:00:39;;;;;;;11.85;7.07;;;;;;;4.33;50.50;99459.91;3142850;28;20484;-59
2022/03/03 04:02:11;;;;;;;12.63;7.53;;;;;;;4.33;50.62;99458.16;3150027;28;20044;-59
2022/03/03 04:03:43;;;;;;;13.77;7.88;;;;;;;4.33;50.47;99459.91;3145203;28;20048;-59
2022/03/03 04:05:16;;;;;;;14.52;7.35;;;;;;;4.32;50.59;99460.81;3144833;28;20089;-59
2022/03/03 04:06:48;;;;;;;12.18;7.18;;;;;;;4.30;50.61;99460.00;3150651;28;20060;-60
2022/03/03 04:08:21;;;;;;;12.23;7.40;;;;;;;4.31;50.64;99459.94;3141411;28;20135;-61
2022/03/03 04:09:54;;;;;;;11.43;6.78;;;;;;;4.33;50.41;99457.34;3148228;28;20047;-61
2022/03/03 04:11:26;;;;;;;13.05;7.97;;;;;;;4.33;50.56;99462.50;3145544;28;20040;-61
2022/03/03 04:12:58;;;;;;;14.82;8.57;;;;;;;4.33;50.57;99463.34;3149603;28;20517;-62
2022/03/03 04:14:30;;;;;;;13.82;7.70;;;;;;;4.12;50.46;99430.38;3148101;28;20068;-61
2022/03/03 04:16:02;;;;;;;15.15;7.72;;;;;;;4.33;50.52;99465.06;3147070;28;20138;-62
2022/03/03 04:17:34;;;;;;;15.23;7.75;;;;;;;4.34;50.54;99469.31;3149461;28;20121;-60
2022/03/03 04:19:06;;;;;;;13.68;8.02;;;;;;;4.36;50.66;99464.16;3145024;28;20502;-62
2022/03/03 04:20:38;;;;;;;16.30;8.35;;;;;;;4.37;50.65;99464.09;3143050;28;20451;-59
2022/03/03 04:22:10;;;;;;;14.07;8.48;;;;;;;4.34;50.56;99454.69;3149772;28;20132;-62
2022/03/03 04:23:43;;;;;;;12.65;7.50;;;;;;;4.36;50.61;99454.69;3142910;28;20086;-60
2022/03/03 04:25:15;;;;;;;14.15;7.80;;;;;;;4.36;50.56;99453.84;3145476;28;20083;-59
2022/03/03 04:26:47;;;;;;;18.13;8.90;;;;;;;4.36;50.63;99453.84;3150863;28;20044;-59
2022/03/03 04:28:19;;;;;;;15.73;8.73;;;;;;;4.38;50.58;99452.03;3146189;28;20056;-60
2022/03/03 04:29:51;;;;;;;13.82;7.93;;;;;;;4.31;50.70;99446.19;3153279;28;20450;-60
2022/03/03 04:31:23;;;;;;;14.10;7.53;;;;;;;4.36;50.66;99457.25;3150658;28;20040;-60
2022/03/03 04:32:55;;;;;;;12.93;7.50;;;;;;;4.39;50.61;99456.34;3146633;28;20044;-60
2022/03/03 04:34:26;;;;;;;13.93;7.38;;;;;;;4.39;50.59;99466.66;3154776;28;20490;-60
2022/03/03 04:35:58;;;;;;;12.90;7.60;;;;;;;4.40;50.62;99464.00;3148623;28;20537;-60
2022/03/03 04:37:30;;;;;;;13.45;7.90;;;;;;;4.41;50.72;99460.56;3149138;28;20127;-60
2022/03/03 04:39:04;;;;;;;14.27;7.85;;;;;;;4.44;50.57;99467.38;3153606;28;20048;-61
2022/03/03 04:40:36;;;;;;;16.20;7.78;;;;;;;4.41;50.64;99462.28;3145972;28;20048;-60
2022/03/03 04:42:08;;;;;;;16.38;8.23;;;;;;;4.40;50.71;99461.44;3150961;28;20129;-60
2022/03/03 04:43:40;;;;;;;15.00;8.30;;;;;;;4.39;50.76;99458.91;3154271;28;20052;-60
2022/03/03 04:45:12;;;;;;;16.83;8.70;;;;;;;4.39;50.58;99457.19;3145937;28;20056;-60
2022/03/03 04:46:44;;;;;;;16.15;8.30;;;;;;;4.39;50.78;99458.91;3153290;28;20114;-60
2022/03/03 04:48:15;;;;;;;13.55;8.23;;;;;;;4.39;50.75;99453.75;3149413;28;20110;-60
2022/03/03 04:49:47;;;;;;;14.32;8.43;;;;;;;4.41;50.72;99470.88;3148021;28;20546;-60
2022/03/03 04:51:19;;;;;;;20.13;9.57;;;;;;;4.42;50.84;99458.84;3154289;28;20091;-60
2022/03/03 04:52:51;;;;;;;13.68;7.97;;;;;;;4.29;50.70;99438.53;3155724;28;20117;-60
2022/03/03 04:54:24;;;;;;;15.93;7.75;;;;;;;4.42;50.73;99457.09;3154376;28;20140;-61
2022/03/03 04:55:57;;;;;;;14.05;8.70;;;;;;;4.41;50.70;99462.28;3155296;28;20509;-60
2022/03/03 04:57:29;;;;;;;13.15;7.65;;;;;;;4.40;50.74;99458.84;3158169;28;20139;-61
2022/03/03 04:59:00;;;;;;;15.48;8.30;;;;;;;4.43;50.67;99465.66;3152336;28;20041;-61
2022/03/03 05:00:32;;;;;;;15.68;7.60;;;;;;;4.44;50.65;99468.22;3150614;28;20063;-61
2022/03/03 05:02:04;;;;;;;16.42;8.50;;;;;;;4.45;50.72;99469.06;3149499;28;20076;-62
2022/03/03 05:03:36;;;;;;;14.50;8.13;;;;;;;4.45;50.81;99461.34;3153300;28;20055;-61
2022/03/03 05:05:09;;;;;;;15.68;8.52;;;;;;;4.48;50.75;99461.25;3157660;28;20052;-62
2022/03/03 05:06:40;;;;;;;14.43;8.52;;;;;;;4.48;50.67;99458.66;3156486;28;20074;-61
2022/03/03 05:08:13;;;;;;;17.70;8.38;;;;;;;4.39;50.78;99444.28;3153628;28;20112;-62
2022/03/03 05:09:46;;;;;;;13.50;7.47;;;;;;;4.47;50.79;99454.41;3157905;28;20052;-62
2022/03/03 05:11:19;;;;;;;18.88;8.35;;;;;;;4.45;50.88;99457.00;3154501;28;20090;-61
2022/03/03 05:12:52;;;;;;;17.45;10.20;;;;;;;4.25;50.78;99429.16;3156123;28;20052;-62
2022/03/03 05:14:24;;;;;;;16.03;9.53;;;;;;;4.48;50.75;99458.66;3153803;28;20195;-62
2022/03/03 05:15:56;;;;;;;16.35;9.18;;;;;;;4.48;50.84;99474.97;3153911;28;20870;-62
2022/03/03 05:17:28;;;;;;;19.40;8.80;;;;;;;4.51;50.86;99468.91;3148324;28;20052;-62
2022/03/03 05:19:00;;;;;;;19.52;9.30;;;;;;;4.52;50.74;99475.75;3147498;28;20587;-62
2022/03/03 05:20:32;;;;;;;17.52;8.43;;;;;;;4.54;50.89;99471.41;3154011;28;20146;-62
2022/03/03 05:22:04;;;;;;;16.30;8.18;;;;;;;4.56;50.79;99467.91;3146277;28;20068;-62
2022/03/03 05:23:36;;;;;;;15.52;8.60;;;;;;;4.55;50.82;99465.34;3155595;28;20128;-62
2022/03/03 05:25:10;;;;;;;15.93;9.25;;;;;;;4.59;50.64;99468.72;3152002;28;20047;-62
2022/03/03 05:26:41;;;;;;;16.83;9.23;;;;;;;4.59;50.88;99469.56;3145655;28;20068;-62
2022/03/03 05:28:13;;;;;;;15.02;8.90;;;;;;;4.58;50.73;99462.69;3151025;28;20043;-61
2022/03/03 05:29:45;;;;;;;15.18;8.82;;;;;;;4.62;50.73;99468.66;3151037;28;20094;-62
2022/03/03 05:31:17;;;;;;;15.77;9.40;;;;;;;4.62;50.79;99468.66;3145248;28;20048;-61
2022/03/03 05:32:49;;;;;;;16.50;9.55;;;;;;;4.64;50.71;99459.94;3153345;28;21448;-62
2022/03/03 05:34:21;;;;;;;15.38;9.07;;;;;;;4.61;50.71;99465.19;3152733;28;20063;-62
2022/03/03 05:35:59;;;;;;;15.95;8.77;;;;;;;4.72;50.88;99470.91;3148638;28;20517;-62
2022/03/03 05:37:32;;;;;;;21.67;9.70;;;;;;;4.72;50.74;99470.06;3152819;28;20566;-62
2022/03/03 05:39:04;;;;;;;23.33;12.02;;;;;;;4.73;50.78;99471.75;3145520;28;20048;-62
2022/03/03 05:40:37;;;;;;;21.05;10.02;;;;;;;4.78;50.70;99473.34;3148870;28;20286;-62
2022/03/03 05:42:12;;;;;;;21.55;11.80;;;;;;;4.80;50.72;99475.88;3151012;28;20054;-62
2022/03/03 05:43:44;;;;;;;19.80;10.55;;;;;;;4.84;50.64;99471.47;3145711;28;20070;-61
2022/03/03 05:45:16;;;;;;;18.58;9.63;;;;;;;4.88;50.63;99471.38;3152308;28;20047;-60
2022/03/03 05:46:49;;;;;;;22.70;12.57;;;;;;;4.92;50.49;99462.66;3147932;28;20053;-60
2022/03/03 05:48:22;;;;;;;22.48;12.93;;;;;;;4.94;50.37;99463.47;3148142;28;20049;-60
2022/03/03 05:49:55;;;;;;;;;;;;;;;4.82;50.51;99465.50;3153139;28;20047;-60
2022/03/03 05:51:27;;;;;;;17.40;9.38;;;;;;;4.91;50.54;99467.84;3148300;28;19924;-62
2022/03/03 05:53:01;;;;;;;17.38;9.32;;;;;;;4.99;50.42;99465.91;3150357;28;20052;-60
2022/03/03 05:54:33;;;;;;;19.73;10.50;;;;;;;5.05;50.33;99467.47;3156232;28;20048;-60
2022/03/03 05:56:09;;;;;;;15.90;9.40;;;;;;;5.11;50.17;99470.72;3156606;28;20121;-60
2022/03/03 05:57:44;;;;;;;16.83;9.10;;;;;;;4.76;50.22;99402.03;3151452;28;20052;-60
2022/03/03 05:59:17;;;;;;;17.83;9.55;;;;;;;5.19;50.08;99473.09;3150213;28;20044;-61
2022/03/03 06:00:54;;;;;;;18.38;9.88;;;;;;;5.22;50.01;99468.69;3147594;28;20131;-60
2022/03/03 06:02:26;;;;;;;20.30;10.23;;;;;;;5.25;49.92;99466.00;3152865;28;20101;-60
2022/03/03 06:04:01;;;;;;;21.90;10.57;;;;;;;5.30;49.79;99471.06;3157263;28;20109;-60
2022/03/03 06:05:35;;;;;;;17.77;8.73;;;;;;;5.36;49.73;99468.28;3150825;28;20048;-60
2022/03/03 06:07:10;;;;;;;16.10;9.05;;;;;;;5.42;49.53;99472.44;3155736;28;20048;-61
2022/03/03 06:08:50;;;;;;;17.83;9.07;;;;;;;5.43;49.40;99461.19;3153105;28;20462;-61
2022/03/03 06:10:24;;;;;;;18.27;9.25;;;;;;;5.51;49.36;99469.56;3153831;28;20044;-60
2022/03/03 06:12:04;;;;;;;15.15;8.77;;;;;;;5.59;49.05;99465.03;3146823;28;20044;-60
2022/03/03 06:13:39;;;;;;;16.17;9.75;;;;;;;5.64;49.16;99465.72;3152513;28;20044;-60
2022/03/03 06:15:14;;;;;;;21.52;9.75;;;;;;;5.67;48.81;99457.88;3151984;28;20611;-60
2022/03/03 06:16:47;;;;;;;20.55;10.55;;;;;;;5.74;48.76;99461.13;3148848;28;20139;-60
2022/03/03 06:18:20;;;;;;;;;;;;;;;5.64;48.88;99460.56;3152928;28;20055;-61
2022/03/03 06:19:53;;;;;;;17.85;8.90;;;;;;;5.74;48.63;99455.97;3150125;28;19924;-61
2022/03/03 06:21:25;;;;;;;16.20;9.48;;;;;;;5.84;48.54;99461.69;3144291;28;20517;-62
2022/03/03 06:22:57;;;;;;;16.85;10.23;;;;;;;5.91;48.43;99460.59;3148858;28;20062;-61
2022/03/03 06:24:29;;;;;;;16.83;9.52;;;;;;;5.96;48.27;99466.50;3151625;28;20052;-61
2022/03/03 06:26:04;;;;;;;19.67;9.98;;;;;;;6.03;48.27;99474.91;3149890;28;20048;-61
2022/03/03 06:27:38;;;;;;;17.70;9.35;;;;;;;6.07;48.10;99472.19;3147415;28;20082;-61
2022/03/03 06:29:10;;;;;;;13.85;8.45;;;;;;;6.14;47.88;99476.25;3139776;28;20078;-61
2022/03/03 06:30:42;;;;;;;19.65;10.13;;;;;;;6.19;47.84;99470.94;3145495;28;20554;-64
2022/03/03 06:32:14;;;;;;;15.65;9.38;;;;;;;6.25;47.75;99465.56;3147075;28;20048;-61
2022/03/03 06:33:47;;;;;;;15.75;9.52;;;;;;;6.33;47.72;99467.88;3144488;28;20073;-61
2022/03/03 06:35:19;;;;;;;16.10;9.43;;;;;;;6.43;47.70;99471.88;3148210;28;20048;-62
2022/03/03 06:36:51;;;;;;;19.65;10.02;;;;;;;6.15;47.46;99407.28;3142060;28;20052;-62
2022/03/03 06:38:24;;;;;;;23.80;9.07;;;;;;;6.70;47.43;99462.31;3142900;28;20105;-61
2022/03/03 06:39:56;;;;;;;14.85;9.82;;;;;;;7.05;47.39;99457.66;3147749;28;20073;-61
2022/03/03 06:41:29;;;;;;;15.32;9.32;;;;;;;7.53;46.83;99454.13;3151689;28;20166;-62
2022/03/03 06:43:02;;;;;;;15.05;9.07;;;;;;;7.88;46.05;99452.75;3148206;28;20059;-62
2022/03/03 06:44:35;;;;;;;18.67;9.85;;;;;;;8.20;45.34;99469.63;3147737;28;20490;-62
2022/03/03 06:46:08;;;;;;;15.30;9.30;;;;;;;8.35;45.18;99473.34;3144657;28;20048;-61
2022/03/03 06:47:40;;;;;;;;;;;;;;;8.21;45.44;99473.06;3147916;28;20067;-61
2022/03/03 06:49:13;;;;;;;18.33;10.15;;;;;;;8.05;44.98;99438.28;3146890;28;19924;-61
2022/03/03 06:50:47;;;;;;;17.40;11.13;;;;;;;8.10;44.79;99452.72;3145606;28;20052;-61
2022/03/03 06:52:26;;;;;;;29.17;15.13;;;;;;;8.13;44.63;99465.59;3149081;28;20052;-61
2022/03/03 06:54:03;;;;;;;20.73;12.10;;;;;;;8.14;44.80;99480.25;3148679;28;20051;-61
2022/03/03 06:55:36;;;;;;;17.48;10.45;;;;;;;8.12;45.01;99473.44;3148972;28;20044;-61
2022/03/03 06:57:11;;;;;;;19.98;11.82;;;;;;;8.13;45.02;99482.88;3151985;28;20048;-61
2022/03/03 06:58:45;;;;;;;19.27;11.32;;;;;;;8.14;44.96;99476.81;3146565;28;20083;-61
2022/03/03 07:00:20;;;;;;;21.27;11.60;;;;;;;7.79;45.01;99421.19;3148842;28;20529;-61
2022/03/03 07:01:54;;;;;;;19.40;11.18;;;;;;;8.20;44.89;99481.75;3143145;28;20055;-62
2022/03/03 07:03:31;;;;;;;23.45;11.65;;;;;;;8.27;44.74;99484.94;3148131;28;20114;-61
2022/03/03 07:05:03;;;;;;;18.92;11.02;;;;;;;8.32;44.73;99485.59;3154031;28;20048;-63
2022/03/03 07:06:36;;;;;;;21.73;11.77;;;;;;;8.34;44.74;99487.22;3151649;28;20108;-63
2022/03/03 07:08:08;;;;;;;16.88;10.65;;;;;;;8.36;44.50;99484.53;3148250;28;20058;-63
2022/03/03 07:09:41;;;;;;;20.27;12.75;;;;;;;8.38;44.59;99482.75;3146395;28;20066;-64
2022/03/03 07:11:16;;;;;;;23.02;11.77;;;;;;;8.30;44.67;99485.63;3143816;28;20063;-64
2022/03/03 07:12:51;;;;;;;22.20;11.70;;;;;;;8.29;44.53;99489.16;3150092;28;20060;-64
2022/03/03 07:14:24;;;;;;;20.10;12.10;;;;;;;8.24;44.92;99495.44;3147751;28;20083;-64
2022/03/03 07:15:56;;;;;;;;;;;;;;;8.06;45.27;99492.66;3146883;28;20056;-64
2022/03/03 07:17:38;;;;;;;22.27;12.50;;;;;;;8.13;45.38;99486.34;3148991;28;19977;-64